Acton, Maine
Current Conditions -  °F | °C
As of 11:15 PM on Tuesday 21 Oct 2014 (Local Time) from KSFM Reporting Station
Overcast Overcast  
Wind Chill:   Ceiling: 600
Heat Index:   Visibility: 10mi
Dew Point:   Wind: 14mph
Humidity: 81%   Direction: 360°N
Pressure: 30.04"   Gusts: NA
Location:  43.53°N, 70.91°W
Report Text: KSFM 220315Z AUTO 36012KT 10SM OVC006 08/05 A3004 RMK AO1
Loading
Personal Weather Stations






























Interactive Weather Map
Tropical Storm Tracking
New forecast layout! Learn more

10-Day Weather Forecast

Advertisements
Track Severe Weather on mobile